Terminal Aerodrome Forecast
Issued by NWS

Home | Current Version | Previous Version | Text Only | Print | Product List | Glossary On
Versions: 1 2 3 4 5 6 7 8 9 10 11 12 13 14 15 16 17 18
000
FTUS41 KBTV 260522
TAFMPV
TAF
KMPV 260522Z 2606/2706 29006KT P6SM OVC050
     FM261000 00000KT P6SM FEW050 OVC150
     FM261700 00000KT 1 1/2SM -SN BR OVC020
     FM262100 VRB03KT 1/2SM SN FG OVC008
     FM270400 34004KT 1 1/2SM -SN BR OVC004=

USA.gov is the U.S. government's official web portal to all federal, state and local government web resources and services.